Aeroporto :







RITROVATECI SU...

 
LOGIN :

Iscrizione | Disclaimer

   EN    FR    IT 

 









Sommario :    VFR   VFR Marginale   IFR   IFR Intensivo   IFR Molto Intensivo
Visibilità : 
Base nubi : 
>= 8 km
>= 3000ft
5 / 8 km
1000 / 3000 ft
1500m / 5 km
500 / 1000 ft
800 / 1500m
200 / 500 ft
< 800m
< 200 ft
Simboli :   Temporali  Nebbia  Neve Forte  Precipitazioni Forti  Vento > 20 kt







- Altitudine del aeroporto : 108 ft
- Codice IATA : YGP


CYGP - Gaspé

ULTIMO METAR :
  • 201400Z 25004KT 4SM -RA BR PRFG OVC020 04/03 A3010 RMK SC8 PRFG W VIS 1/2 PRESRR SLP197

METARs OBSOLETI :
  • 201300Z VRB02KT 8SM -RA BR OVC020 03/02 A3008 RMK SC8 SLP188
  • 201200Z CCA 00000KT 8SM -RA BR OVC030 03/02 A3007 RMK SC8 SLP184
  • 201127Z 26003KT 10SM -RA OVC030 03/02 A3004 RMK SC8 PRESRR SLP175

TAF TAF CYGP
Valido dal 20 a 14 ore il 21 a 02 ore UTC


201338Z 2014/2102 VRB03KT P6SM -RA OVC030
TEMPO 2014/2019 5SM -RA BR OVC020
FM201900 VRB03KT P6SM OVC040
FM202300 08005KT P6SM -RA OVC030
TEMPO 2023/2102 4SM -RA BR FEW005 OVC020
PROB30 2100/2102 21/2SM -RA BR BKN005 OVC020 RMK NXT FCST BY 202000Z
FIR CZUL / America del Nord



MetMap, La meteo Aeronautica in un colpo d'occhio ! - Copyright ORBIFLY Dicembre 2007 - Disclaimer

ORBIFLY MET'MAP TEAM :

Programmazione e sviluppo : Alexandra Zaïnal
Concezione e sviluppo : Baudouin d'Aumeries
Co-Programmazione e sviluppo : Marc-Olivier Méhu
Supporto tecnico e logistico : Manuel Goepfert
Aiuto per la traduzione : Arnaldo La Scala

Contatto : metmap@orbifly.com




FONTI E CREDITI :

   NOAA